Time;durP1;ratioP1;P1;durP2;ratioP2;P2;SDS_P1;SDS_P2;PMS_P1;PMS_P2;Temp;Humidity;BMP_temperature;BMP_pressure;BME280_temperature;BME280_humidity;BME280_pressure;Samples;Min_cycle;Max_cycle;Signal;HPM_P1;HPM_P2
2022/08/16 00:00:41;;;;;;;6.07;3.92;;;;;;;;;;5052096;28;20463;-73
2022/08/16 00:03:08;;;;;;;5.68;3.60;;;;;;;;;;5053215;28;20025;-74
2022/08/16 00:05:35;;;;;;;5.80;3.60;;;;;;;;;;5053823;28;20056;-70
2022/08/16 00:08:01;;;;;;;11.77;4.22;;;;;;;;;;5052487;28;20032;-72
2022/08/16 00:10:29;;;;;;;4.28;3.42;;;;;;;;;;5052628;28;20029;-68
2022/08/16 00:12:55;;;;;;;4.10;3.55;;;;;;;;;;5052318;28;20530;-68
2022/08/16 00:15:27;;;;;;;8.32;4.18;;;;;;;;;;5051589;28;20036;-69
2022/08/16 00:17:54;;;;;;;6.05;3.50;;;;;;;;;;5053719;28;20033;-69
2022/08/16 00:20:21;;;;;;;5.05;3.60;;;;;;;;;;5053051;28;20083;-73
2022/08/16 00:22:47;;;;;;;4.43;3.58;;;;;;;;;;5052432;28;20025;-79
2022/08/16 00:25:14;;;;;;;3.97;3.30;;;;;;;;;;5052500;28;20037;-69
2022/08/16 00:27:40;;;;;;;15.70;10.38;;;;;;;;;;5051674;28;20075;-69
2022/08/16 00:30:08;;;;;;;9.55;7.20;;;;;;;;;;5053252;28;20108;-74
2022/08/16 00:32:34;;;;;;;5.50;3.60;;;;;;;;;;5051432;28;20025;-68
2022/08/16 00:35:00;;;;;;;4.13;3.20;;;;;;;;;;5052635;28;20029;-77
2022/08/16 00:37:26;;;;;;;4.72;3.40;;;;;;;;;;5048156;28;20393;-69
2022/08/16 00:39:53;;;;;;;4.32;3.58;;;;;;;;;;5053496;28;20021;-69
2022/08/16 00:42:19;;;;;;;4.38;3.50;;;;;;;;;;5052031;28;20033;-71
2022/08/16 00:44:49;;;;;;;4.90;3.75;;;;;;;;;;5052833;28;20037;-71
2022/08/16 00:47:16;;;;;;;4.95;3.63;;;;;;;;;;5049985;28;20086;-70
2022/08/16 00:49:42;;;;;;;8.20;3.60;;;;;;;;;;5046196;28;20032;-70
2022/08/16 00:52:08;;;;;;;5.18;4.03;;;;;;;;;;5051797;28;20497;-70
2022/08/16 00:54:34;;;;;;;4.78;3.78;;;;;;;;;;5053018;28;20021;-77
2022/08/16 00:57:04;;;;;;;6.60;4.03;;;;;;;;;;5052275;28;20424;-70
2022/08/16 00:59:35;;;;;;;7.88;3.83;;;;;;;;;;5052880;28;20090;-74
2022/08/16 01:02:02;;;;;;;5.80;4.00;;;;;;;;;;5052527;28;20466;-77
2022/08/16 01:04:28;;;;;;;4.20;3.80;;;;;;;;;;5051241;28;20493;-69
2022/08/16 01:06:55;;;;;;;4.40;3.95;;;;;;;;;;5052415;28;20037;-87
2022/08/16 01:09:22;;;;;;;4.80;3.85;;;;;;;;;;5052516;28;20025;-77
2022/08/16 01:11:48;;;;;;;5.57;3.90;;;;;;;;;;5052876;28;20546;-69
2022/08/16 01:14:19;;;;;;;4.53;4.03;;;;;;;;;;5049882;28;20047;-69
2022/08/16 01:16:46;;;;;;;6.75;4.40;;;;;;;;;;5051893;28;20044;-74
2022/08/16 01:19:18;;;;;;;5.95;3.83;;;;;;;;;;5051798;28;20033;-89
2022/08/16 01:22:02;;;;;;;5.40;4.13;;;;;;;;;;5052557;28;20040;-70
2022/08/16 01:24:39;;;;;;;6.05;4.47;;;;;;;;;;5051463;28;20107;-86
2022/08/16 01:27:14;;;;;;;5.30;4.50;;;;;;;;;;5052542;28;20028;-69
2022/08/16 01:29:44;;;;;;;6.65;4.35;;;;;;;;;;5051871;28;20053;-87
2022/08/16 01:32:10;;;;;;;5.93;4.13;;;;;;;;;;5051625;28;20056;-69
2022/08/16 01:34:36;;;;;;;7.22;4.50;;;;;;;;;;5050805;28;20029;-69
2022/08/16 01:37:05;;;;;;;6.38;4.70;;;;;;;;;;5055366;28;20033;-74
2022/08/16 01:39:32;;;;;;;7.40;4.70;;;;;;;;;;5051758;28;20017;-83
2022/08/16 01:41:58;;;;;;;5.72;4.57;;;;;;;;;;5052608;28;20032;-78
2022/08/16 01:44:24;;;;;;;5.97;4.55;;;;;;;;;;5049621;28;20140;-74
2022/08/16 01:46:52;;;;;;;7.78;5.07;;;;;;;;;;5051822;28;20036;-69
2022/08/16 01:49:27;;;;;;;5.85;4.38;;;;;;;;;;5049908;28;20029;-69
2022/08/16 01:52:01;;;;;;;7.07;4.95;;;;;;;;;;5051828;28;20021;-84
2022/08/16 01:54:28;;;;;;;7.38;4.80;;;;;;;;;;5051611;28;20375;-72
2022/08/16 01:56:55;;;;;;;8.40;4.88;;;;;;;;;;5052024;28;20080;-75
2022/08/16 01:59:21;;;;;;;8.30;5.40;;;;;;;;;;5040001;28;20036;-69
2022/08/16 02:01:49;;;;;;;9.82;6.03;;;;;;;;;;5045002;28;20493;-69
2022/08/16 02:04:15;;;;;;;8.05;6.22;;;;;;;;;;5052710;28;20028;-74
2022/08/16 02:06:42;;;;;;;11.77;6.80;;;;;;;;;;5051519;28;20071;-68
2022/08/16 02:09:08;;;;;;;9.10;6.15;;;;;;;;;;5052001;28;20017;-69
2022/08/16 02:11:35;;;;;;;9.68;6.35;;;;;;;;;;5052047;28;20378;-72
2022/08/16 02:14:01;;;;;;;12.00;8.00;;;;;;;;;;5050725;28;20100;-69
2022/08/16 02:16:27;;;;;;;12.32;7.65;;;;;;;;;;5049208;28;20112;-68
2022/08/16 02:18:53;;;;;;;11.50;7.18;;;;;;;;;;5051535;28;20494;-70
2022/08/16 02:21:20;;;;;;;9.82;7.60;;;;;;;;;;5051624;28;20048;-79
2022/08/16 02:23:46;;;;;;;12.20;7.82;;;;;;;;;;5051133;28;20056;-69
2022/08/16 02:26:14;;;;;;;15.57;7.60;;;;;;;;;;5051710;28;20029;-73
2022/08/16 02:28:40;;;;;;;11.75;7.38;;;;;;;;;;5055649;28;20044;-69
2022/08/16 02:31:08;;;;;;;11.00;6.85;;;;;;;;;;5057375;28;20075;-87
2022/08/16 02:33:35;;;;;;;11.68;7.20;;;;;;;;;;5055170;28;20552;-68
2022/08/16 02:36:01;;;;;;;12.90;6.88;;;;;;;;;;5055824;28;20405;-81
2022/08/16 02:38:28;;;;;;;12.40;7.15;;;;;;;;;;5054441;28;20593;-78
2022/08/16 02:40:55;;;;;;;13.65;7.20;;;;;;;;;;5055326;28;20046;-68
2022/08/16 02:43:22;;;;;;;12.85;7.32;;;;;;;;;;5054816;28;20486;-85
2022/08/16 02:45:48;;;;;;;10.85;6.63;;;;;;;;;;5051938;28;20064;-68
2022/08/16 02:48:14;;;;;;;17.17;7.95;;;;;;;;;;5056422;28;20021;-86
2022/08/16 02:50:41;;;;;;;12.20;6.90;;;;;;;;;;5046533;28;20025;-69
2022/08/16 02:53:07;;;;;;;9.57;7.15;;;;;;;;;;5055169;28;20025;-69
2022/08/16 02:55:33;;;;;;;10.52;7.22;;;;;;;;;;5054797;28;20025;-70
2022/08/16 02:57:59;;;;;;;9.82;7.07;;;;;;;;;;5054890;28;20111;-70
2022/08/16 03:00:25;;;;;;;10.82;6.22;;;;;;;;;;5053783;28;20029;-83
2022/08/16 03:02:54;;;;;;;10.77;7.18;;;;;;;;;;5058906;28;20036;-78
2022/08/16 03:05:20;;;;;;;10.27;6.75;;;;;;;;;;5053988;28;20466;-87
2022/08/16 03:07:46;;;;;;;11.02;6.72;;;;;;;;;;5054739;28;20458;-87
2022/08/16 03:10:12;;;;;;;11.27;6.32;;;;;;;;;;5053643;28;20394;-68
2022/08/16 03:12:39;;;;;;;10.40;6.28;;;;;;;;;;5054562;28;20031;-69
2022/08/16 03:15:08;;;;;;;7.93;5.65;;;;;;;;;;5054796;28;20032;-69
2022/08/16 03:17:35;;;;;;;7.82;6.15;;;;;;;;;;5054675;28;20037;-68
2022/08/16 03:20:02;;;;;;;8.43;5.93;;;;;;;;;;5055090;28;21278;-69
2022/08/16 03:22:28;;;;;;;9.02;6.07;;;;;;;;;;5053569;28;20467;-68
2022/08/16 03:24:54;;;;;;;9.85;5.82;;;;;;;;;;5054909;28;20453;-75
2022/08/16 03:27:20;;;;;;;7.88;5.40;;;;;;;;;;5052202;28;20025;-69
2022/08/16 03:29:46;;;;;;;8.82;5.20;;;;;;;;;;5055078;28;20025;-86
2022/08/16 03:32:12;;;;;;;9.30;5.65;;;;;;;;;;5053309;28;20079;-69
2022/08/16 03:34:39;;;;;;;6.70;5.25;;;;;;;;;;5054775;28;20025;-68
2022/08/16 03:37:05;;;;;;;7.45;5.57;;;;;;;;;;5053787;28;20386;-80
2022/08/16 03:39:31;;;;;;;7.53;5.22;;;;;;;;;;5054212;28;20024;-69
2022/08/16 03:41:57;;;;;;;7.43;5.20;;;;;;;;;;5058619;28;20029;-76
2022/08/16 03:44:23;;;;;;;12.68;9.55;;;;;;;;;;5052661;28;20037;-74
2022/08/16 03:46:49;;;;;;;7.45;5.93;;;;;;;;;;5053020;28;20483;-78
2022/08/16 03:49:16;;;;;;;7.25;5.13;;;;;;;;;;5054022;28;20029;-82
2022/08/16 03:51:43;;;;;;;7.43;5.40;;;;;;;;;;5061657;28;20028;-86
2022/08/16 03:54:09;;;;;;;7.85;5.30;;;;;;;;;;5053082;28;20029;-69
2022/08/16 03:56:35;;;;;;;6.05;4.80;;;;;;;;;;5054086;28;20037;-76
2022/08/16 03:59:01;;;;;;;7.72;4.75;;;;;;;;;;5054295;28;20040;-70
2022/08/16 04:01:27;;;;;;;6.68;4.88;;;;;;;;;;5053320;28;20371;-87
2022/08/16 04:03:53;;;;;;;11.80;5.55;;;;;;;;;;5051429;28;20025;-88
2022/08/16 04:06:20;;;;;;;9.95;5.13;;;;;;;;;;5052817;28;20029;-81
2022/08/16 04:08:47;;;;;;;7.85;4.97;;;;;;;;;;5053262;28;20498;-80
2022/08/16 04:11:13;;;;;;;6.82;4.95;;;;;;;;;;5052838;28;20029;-73
2022/08/16 04:13:39;;;;;;;10.93;5.72;;;;;;;;;;5056170;28;20104;-86
2022/08/16 04:16:06;;;;;;;12.73;5.38;;;;;;;;;;5054172;28;20104;-79
2022/08/16 04:18:35;;;;;;;8.27;5.05;;;;;;;;;;5052901;28;20107;-77
2022/08/16 04:21:01;;;;;;;10.63;5.07;;;;;;;;;;5053538;28;20013;-79
2022/08/16 04:23:27;;;;;;;6.88;5.03;;;;;;;;;;5052825;28;20068;-88
2022/08/16 04:25:53;;;;;;;6.32;5.00;;;;;;;;;;5053452;28;20123;-81
2022/08/16 04:28:19;;;;;;;7.07;5.00;;;;;;;;;;5049458;28;20163;-87
2022/08/16 04:30:45;;;;;;;10.57;5.53;;;;;;;;;;5050950;28;20025;-74
2022/08/16 04:33:11;;;;;;;8.85;5.18;;;;;;;;;;5051797;28;20025;-83
2022/08/16 04:35:38;;;;;;;14.13;6.40;;;;;;;;;;5052515;28;20505;-71
2022/08/16 04:38:04;;;;;;;9.02;4.93;;;;;;;;;;5053538;28;20036;-76
2022/08/16 04:40:30;;;;;;;6.32;4.93;;;;;;;;;;5034684;28;20123;-86
2022/08/16 04:42:59;;;;;;;9.82;5.35;;;;;;;;;;5058072;28;20025;-81
2022/08/16 04:45:25;;;;;;;8.38;5.28;;;;;;;;;;5065326;28;20083;-70
2022/08/16 04:47:52;;;;;;;10.85;5.30;;;;;;;;;;5051126;28;20628;-78
2022/08/16 04:50:21;;;;;;;9.40;5.40;;;;;;;;;;5046926;28;20025;-83
2022/08/16 04:52:48;;;;;;;9.98;5.18;;;;;;;;;;5048868;28;20732;-68
2022/08/16 04:55:19;;;;;;;15.80;5.78;;;;;;;;;;5052701;28;20020;-71
2022/08/16 04:57:47;;;;;;;10.27;5.13;;;;;;;;;;5061382;28;20064;-67
2022/08/16 05:00:15;;;;;;;7.78;4.20;;;;;;;;;;5055018;28;20024;-76
2022/08/16 05:02:41;;;;;;;8.77;4.47;;;;;;;;;;5054949;28;20032;-78
2022/08/16 05:05:08;;;;;;;8.63;4.40;;;;;;;;;;5050860;28;20020;-66
2022/08/16 05:07:34;;;;;;;10.70;5.35;;;;;;;;;;5052122;28;20048;-80
2022/08/16 05:10:00;;;;;;;7.97;4.95;;;;;;;;;;5050874;28;20112;-77
2022/08/16 05:12:26;;;;;;;8.90;5.18;;;;;;;;;;5050878;28;20063;-70
2022/08/16 05:14:53;;;;;;;7.93;4.50;;;;;;;;;;5050801;28;20055;-79
2022/08/16 05:17:19;;;;;;;6.93;4.30;;;;;;;;;;5051541;28;20037;-78
2022/08/16 05:19:45;;;;;;;7.75;4.43;;;;;;;;;;5036253;28;20071;-78
2022/08/16 05:22:11;;;;;;;7.88;4.72;;;;;;;;;;5040482;28;20033;-66
2022/08/16 05:24:38;;;;;;;9.18;4.90;;;;;;;;;;5049130;28;20497;-67
2022/08/16 05:27:04;;;;;;;7.82;4.60;;;;;;;;;;5050959;28;20044;-67
2022/08/16 05:29:30;;;;;;;8.82;4.75;;;;;;;;;;5049718;28;20025;-67
2022/08/16 05:31:56;;;;;;;7.35;4.50;;;;;;;;;;5050031;28;20040;-66
2022/08/16 05:34:23;;;;;;;6.57;4.45;;;;;;;;;;5049754;28;20072;-80
2022/08/16 05:36:51;;;;;;;8.90;4.70;;;;;;;;;;5050786;28;20110;-67
2022/08/16 05:39:18;;;;;;;6.25;4.20;;;;;;;;;;5050363;28;20036;-76
2022/08/16 05:41:44;;;;;;;13.48;4.95;;;;;;;;;;5052230;28;20056;-67
2022/08/16 05:44:10;;;;;;;9.25;4.82;;;;;;;;;;5052040;28;20051;-67
2022/08/16 05:46:36;;;;;;;7.95;4.75;;;;;;;;;;5051525;28;20497;-74
2022/08/16 05:49:02;;;;;;;9.27;4.93;;;;;;;;;;5052054;28;20033;-79
2022/08/16 05:51:28;;;;;;;14.10;5.07;;;;;;;;;;5051954;28;20075;-78
2022/08/16 05:53:54;;;;;;;9.20;4.32;;;;;;;;;;5052380;28;20029;-67
2022/08/16 05:56:20;;;;;;;8.18;4.40;;;;;;;;;;5051987;28;20065;-67
2022/08/16 05:58:46;;;;;;;8.82;4.10;;;;;;;;;;5051416;28;20013;-68
2022/08/16 06:01:12;;;;;;;9.63;3.85;;;;;;;;;;5053505;28;20025;-82
2022/08/16 06:03:38;;;;;;;8.38;4.13;;;;;;;;;;5055797;28;20106;-81
2022/08/16 06:06:04;;;;;;;7.13;3.92;;;;;;;;;;5055969;28;20025;-71
2022/08/16 06:08:30;;;;;;;8.48;4.18;;;;;;;;;;5055975;28;20033;-68
2022/08/16 06:10:56;;;;;;;7.32;4.20;;;;;;;;;;5056243;28;20104;-66
2022/08/16 06:13:22;;;;;;;7.13;4.32;;;;;;;;;;5055531;28;20021;-74
2022/08/16 06:15:50;;;;;;;11.52;4.30;;;;;;;;;;5055775;28;20565;-73
2022/08/16 06:18:18;;;;;;;6.55;4.40;;;;;;;;;;5050705;28;20036;-67
2022/08/16 06:20:44;;;;;;;6.25;4.28;;;;;;;;;;5052126;28;20119;-68
2022/08/16 06:23:10;;;;;;;6.75;3.63;;;;;;;;;;5052209;28;20025;-73
2022/08/16 06:25:36;;;;;;;6.00;4.20;;;;;;;;;;5053531;28;20482;-75
2022/08/16 06:28:04;;;;;;;8.18;4.40;;;;;;;;;;5054800;28;20028;-68
2022/08/16 06:30:31;;;;;;;10.85;4.38;;;;;;;;;;5053974;28;20063;-74
2022/08/16 06:32:58;;;;;;;13.80;5.30;;;;;;;;;;5052467;28;20032;-74
2022/08/16 06:35:24;;;;;;;11.52;4.47;;;;;;;;;;5051770;28;20025;-81
2022/08/16 06:37:50;;;;;;;5.78;4.20;;;;;;;;;;5060172;28;20074;-74
2022/08/16 06:40:16;;;;;;;7.00;4.18;;;;;;;;;;5036878;28;20411;-72
2022/08/16 06:42:42;;;;;;;8.23;4.28;;;;;;;;;;5055230;28;20063;-70
2022/08/16 06:45:09;;;;;;;13.23;4.80;;;;;;;;;;5060119;28;20482;-73
2022/08/16 06:47:35;;;;;;;8.57;4.38;;;;;;;;;;5052484;28;20052;-76
2022/08/16 06:50:01;;;;;;;6.53;4.10;;;;;;;;;;5056495;28;20429;-74
2022/08/16 06:52:31;;;;;;;7.30;4.38;;;;;;;;;;5026439;28;20044;-74
2022/08/16 06:54:57;;;;;;;5.85;4.43;;;;;;;;;;5053834;28;20474;-75
2022/08/16 06:57:24;;;;;;;8.00;4.20;;;;;;;;;;5053489;28;20040;-82
2022/08/16 06:59:50;;;;;;;13.27;4.38;;;;;;;;;;5053738;28;20029;-78
2022/08/16 07:02:16;;;;;;;9.10;4.97;;;;;;;;;;5053944;28;20020;-86
2022/08/16 07:04:42;;;;;;;13.85;5.10;;;;;;;;;;5055373;28;20032;-81
2022/08/16 07:07:08;;;;;;;11.30;4.47;;;;;;;;;;5061063;28;20029;-82
2022/08/16 07:09:35;;;;;;;12.73;4.68;;;;;;;;;;5047400;28;20048;-81
2022/08/16 07:12:01;;;;;;;8.13;4.70;;;;;;;;;;5057892;28;20474;-78
2022/08/16 07:14:27;;;;;;;10.18;4.40;;;;;;;;;;5047848;28;20024;-79
2022/08/16 07:16:54;;;;;;;6.28;4.20;;;;;;;;;;5052074;28;20073;-81
2022/08/16 07:19:20;;;;;;;7.90;4.43;;;;;;;;;;5052796;28;20036;-75
2022/08/16 07:21:46;;;;;;;8.85;4.90;;;;;;;;;;5051109;28;20093;-76
2022/08/16 07:24:12;;;;;;;6.07;4.40;;;;;;;;;;5062263;28;20048;-77
2022/08/16 07:26:39;;;;;;;10.75;4.75;;;;;;;;;;5052373;28;20390;-79
2022/08/16 07:29:05;;;;;;;13.30;4.70;;;;;;;;;;5048973;28;20352;-77
2022/08/16 07:31:32;;;;;;;6.38;4.25;;;;;;;;;;5048137;28;20028;-71
2022/08/16 07:33:58;;;;;;;9.93;4.55;;;;;;;;;;5050310;28;20021;-74
2022/08/16 07:36:24;;;;;;;9.10;4.57;;;;;;;;;;5053763;28;20558;-69
2022/08/16 07:38:51;;;;;;;7.95;4.60;;;;;;;;;;5054024;28;20091;-73
2022/08/16 07:41:17;;;;;;;7.90;4.32;;;;;;;;;;5053568;28;20021;-74
2022/08/16 07:43:43;;;;;;;5.65;4.32;;;;;;;;;;5054801;28;20032;-70
2022/08/16 07:46:09;;;;;;;8.10;3.95;;;;;;;;;;5049791;28;20121;-72
2022/08/16 07:48:35;;;;;;;8.57;3.40;;;;;;;;;;5052265;28;20083;-75
2022/08/16 07:51:01;;;;;;;7.10;3.55;;;;;;;;;;5049985;28;20025;-73
2022/08/16 07:53:29;;;;;;;9.18;3.88;;;;;;;;;;5053492;28;20029;-72
2022/08/16 07:55:55;;;;;;;15.85;4.07;;;;;;;;;;5052034;28;20040;-70
2022/08/16 07:58:21;;;;;;;11.73;4.00;;;;;;;;;;5047427;28;20092;-74
2022/08/16 08:00:47;;;;;;;10.07;3.55;;;;;;;;;;5053382;28;20108;-70
2022/08/16 08:03:13;;;;;;;6.68;3.90;;;;;;;;;;5053163;28;20031;-74
2022/08/16 08:05:39;;;;;;;6.90;3.55;;;;;;;;;;5048105;28;20498;-75
2022/08/16 08:08:05;;;;;;;9.10;3.60;;;;;;;;;;5051507;28;20029;-77
2022/08/16 08:10:31;;;;;;;9.43;3.60;;;;;;;;;;5049814;28;20022;-71
2022/08/16 08:12:57;;;;;;;13.60;4.10;;;;;;;;;;5050617;28;20029;-70
2022/08/16 08:15:23;;;;;;;9.82;3.90;;;;;;;;;;5052819;28;20028;-72
2022/08/16 08:17:50;;;;;;;8.20;3.75;;;;;;;;;;5031761;28;20506;-73
2022/08/16 08:20:17;;;;;;;9.00;3.75;;;;;;;;;;5048508;28;20051;-71
2022/08/16 08:22:45;;;;;;;8.80;3.58;;;;;;;;;;5051318;28;20037;-72
2022/08/16 08:25:12;;;;;;;6.18;3.97;;;;;;;;;;5056515;28;20095;-73
2022/08/16 08:27:38;;;;;;;9.57;4.18;;;;;;;;;;5050135;28;20029;-80
2022/08/16 08:30:05;;;;;;;6.88;3.85;;;;;;;;;;5052276;28;20017;-74
2022/08/16 08:32:31;;;;;;;9.07;4.50;;;;;;;;;;5061001;28;20032;-75
2022/08/16 08:34:58;;;;;;;7.20;4.13;;;;;;;;;;5048144;28;20024;-84
2022/08/16 08:37:26;;;;;;;27.67;17.13;;;;;;;;;;5049977;28;20032;-65
2022/08/16 08:39:52;;;;;;;9.25;4.78;;;;;;;;;;5051639;28;20075;-78
2022/08/16 08:42:19;;;;;;;16.83;6.43;;;;;;;;;;5051839;28;20060;-67
2022/08/16 08:44:45;;;;;;;87.45;49.72;;;;;;;;;;5050156;28;20045;-76
2022/08/16 08:47:11;;;;;;;92.47;63.65;;;;;;;;;;5048860;28;20040;-66
2022/08/16 08:49:38;;;;;;;129.70;93.18;;;;;;;;;;5059048;28;20415;-66
2022/08/16 08:52:04;;;;;;;39.85;30.58;;;;;;;;;;5050095;28;20036;-69
2022/08/16 08:54:31;;;;;;;17.33;8.45;;;;;;;;;;5050989;28;20051;-80
2022/08/16 08:56:57;;;;;;;10.93;5.20;;;;;;;;;;5052677;28;20154;-74
2022/08/16 08:59:23;;;;;;;16.90;11.48;;;;;;;;;;5050343;28;20060;-76
2022/08/16 09:01:50;;;;;;;10.55;7.20;;;;;;;;;;5049232;28;20120;-70
2022/08/16 09:04:16;;;;;;;8.80;5.35;;;;;;;;;;5049660;28;20536;-79
2022/08/16 09:06:42;;;;;;;9.60;4.88;;;;;;;;;;5050392;28;20052;-74
2022/08/16 09:09:08;;;;;;;9.60;4.60;;;;;;;;;;5042678;28;20302;-68
2022/08/16 09:11:35;;;;;;;7.93;5.68;;;;;;;;;;5060356;28;20032;-68
2022/08/16 09:14:01;;;;;;;6.82;4.57;;;;;;;;;;5048559;28;20108;-72
2022/08/16 09:16:28;;;;;;;23.80;5.85;;;;;;;;;;5049598;28;20036;-71
2022/08/16 09:18:54;;;;;;;11.20;4.75;;;;;;;;;;5046835;28;20112;-66
2022/08/16 09:21:21;;;;;;;9.80;4.95;;;;;;;;;;5048349;28;20025;-68
2022/08/16 09:23:47;;;;;;;15.15;4.88;;;;;;;;;;5049570;28;20029;-74
2022/08/16 09:26:16;;;;;;;11.88;5.30;;;;;;;;;;5050223;28;20078;-69
2022/08/16 09:28:44;;;;;;;8.07;4.35;;;;;;;;;;5046819;28;20032;-69
2022/08/16 09:31:11;;;;;;;8.82;4.10;;;;;;;;;;5047315;28;20053;-65
2022/08/16 09:33:37;;;;;;;6.05;3.70;;;;;;;;;;5046280;28;20025;-68
2022/08/16 09:36:04;;;;;;;7.93;4.38;;;;;;;;;;5052035;28;20032;-73
2022/08/16 09:38:30;;;;;;;9.52;3.75;;;;;;;;;;5047616;28;20474;-82
2022/08/16 09:40:56;;;;;;;8.00;4.00;;;;;;;;;;5048056;28;20128;-70
2022/08/16 09:43:23;;;;;;;8.75;4.45;;;;;;;;;;5043737;28;20021;-74
2022/08/16 09:45:50;;;;;;;9.38;4.00;;;;;;;;;;5050072;28;20644;-73
2022/08/16 09:48:16;;;;;;;28.40;9.38;;;;;;;;;;5059680;28;20024;-66
2022/08/16 09:50:43;;;;;;;12.48;5.15;;;;;;;;;;5050845;28;20033;-66
2022/08/16 09:53:16;;;;;;;8.30;4.13;;;;;;;;;;5060371;28;20033;-79
2022/08/16 09:55:49;;;;;;;14.85;4.97;;;;;;;;;;5049331;28;20033;-82
2022/08/16 09:58:15;;;;;;;;;;;;;;;;;;5056986;28;20052;-81
2022/08/16 10:00:43;;;;;;;6.25;3.40;;;;;;;;;;5043785;28;19908;-75
2022/08/16 10:03:09;;;;;;;5.30;4.15;;;;;;;;;;5049604;28;20385;-72
2022/08/16 10:05:36;;;;;;;11.48;6.00;;;;;;;;;;5051968;28;20016;-77
2022/08/16 10:08:06;;;;;;;13.35;4.40;;;;;;;;;;5050606;28;20083;-84
2022/08/16 10:10:33;;;;;;;4.28;3.75;;;;;;;;;;5051089;28;20600;-72
2022/08/16 10:13:11;;;;;;;9.35;4.03;;;;;;;;;;5050736;28;20057;-66
2022/08/16 10:15:39;;;;;;;5.88;3.80;;;;;;;;;;5044651;28;20113;-66
2022/08/16 10:18:06;;;;;;;7.70;3.80;;;;;;;;;;5051601;28;20041;-67
2022/08/16 10:20:34;;;;;;;9.23;3.50;;;;;;;;;;5049337;28;20033;-66
2022/08/16 10:23:00;;;;;;;33.85;23.35;;;;;;;;;;5046927;28;20029;-71
2022/08/16 10:25:26;;;;;;;29.58;18.88;;;;;;;;;;5050818;28;20470;-66
2022/08/16 10:27:52;;;;;;;19.67;5.30;;;;;;;;;;5051447;28;20151;-76
2022/08/16 10:30:18;;;;;;;7.93;5.05;;;;;;;;;;5054472;28;20017;-69
2022/08/16 10:32:44;;;;;;;4.97;3.55;;;;;;;;;;5055500;28;20063;-69
2022/08/16 10:35:10;;;;;;;7.63;4.60;;;;;;;;;;5050923;28;20025;-70
2022/08/16 10:37:37;;;;;;;6.25;5.00;;;;;;;;;;5051661;28;20037;-69
2022/08/16 10:40:08;;;;;;;8.93;5.05;;;;;;;;;;5045101;28;20029;-82
2022/08/16 10:42:34;;;;;;;12.80;7.03;;;;;;;;;;5044924;28;20032;-77
2022/08/16 10:45:01;;;;;;;8.02;4.82;;;;;;;;;;5046807;28;20556;-71
2022/08/16 10:47:28;;;;;;;10.68;4.07;;;;;;;;;;5047034;28;20064;-78
2022/08/16 10:49:54;;;;;;;6.47;4.10;;;;;;;;;;5050256;28;20037;-74
2022/08/16 10:52:21;;;;;;;5.47;3.35;;;;;;;;;;5054194;28;20036;-73
2022/08/16 10:54:48;;;;;;;8.27;3.72;;;;;;;;;;5054483;28;20033;-78
2022/08/16 10:57:15;;;;;;;4.35;3.33;;;;;;;;;;5057900;28;20489;-72
2022/08/16 10:59:41;;;;;;;7.75;3.55;;;;;;;;;;5056917;28;20017;-77
2022/08/16 11:02:09;;;;;;;10.73;3.92;;;;;;;;;;5053793;28;20029;-70
2022/08/16 11:04:35;;;;;;;5.00;3.72;;;;;;;;;;5053423;28;20367;-73
2022/08/16 11:07:01;;;;;;;11.88;3.50;;;;;;;;;;5052940;28;20082;-77
2022/08/16 11:09:27;;;;;;;7.88;4.50;;;;;;;;;;5060495;28;20025;-75
2022/08/16 11:11:56;;;;;;;13.90;3.75;;;;;;;;;;5052615;28;20329;-80
2022/08/16 11:14:23;;;;;;;23.70;4.30;;;;;;;;;;5053960;28;20021;-75
2022/08/16 11:16:49;;;;;;;9.63;3.80;;;;;;;;;;5053287;28;20029;-70
2022/08/16 11:19:16;;;;;;;8.70;3.65;;;;;;;;;;5056091;28;20021;-73
2022/08/16 11:21:43;;;;;;;5.60;3.72;;;;;;;;;;5049034;28;20026;-73
2022/08/16 11:24:10;;;;;;;12.55;3.70;;;;;;;;;;5052643;28;20029;-71
2022/08/16 11:26:36;;;;;;;20.02;4.35;;;;;;;;;;5052635;28;20529;-74
2022/08/16 11:29:02;;;;;;;21.77;6.38;;;;;;;;;;5052680;28;20028;-74
2022/08/16 11:31:28;;;;;;;7.53;3.85;;;;;;;;;;5051690;28;20028;-75
2022/08/16 11:33:54;;;;;;;9.48;5.40;;;;;;;;;;5051744;28;20040;-80
2022/08/16 11:36:20;;;;;;;10.65;5.28;;;;;;;;;;5050607;28;20021;-68
2022/08/16 11:38:46;;;;;;;18.92;4.03;;;;;;;;;;5053591;28;20510;-67
2022/08/16 11:41:12;;;;;;;9.00;4.40;;;;;;;;;;5052990;28;20025;-67
2022/08/16 11:43:40;;;;;;;8.77;4.40;;;;;;;;;;5051994;28;20017;-67
2022/08/16 11:46:11;;;;;;;15.80;4.43;;;;;;;;;;5052893;28;20021;-68
2022/08/16 11:48:37;;;;;;;12.98;3.85;;;;;;;;;;5052989;28;20025;-70
2022/08/16 11:51:04;;;;;;;4.80;3.30;;;;;;;;;;5050759;28;20026;-68
2022/08/16 11:53:31;;;;;;;12.25;3.97;;;;;;;;;;5052923;28;20036;-68
2022/08/16 11:55:58;;;;;;;14.18;4.10;;;;;;;;;;5056776;28;20025;-67
2022/08/16 11:58:25;;;;;;;11.05;3.83;;;;;;;;;;5056898;28;20456;-68
2022/08/16 12:00:52;;;;;;;8.27;3.65;;;;;;;;;;5057734;28;20107;-68
2022/08/16 12:03:18;;;;;;;5.18;3.22;;;;;;;;;;5051998;28;20086;-73
2022/08/16 12:05:46;;;;;;;5.93;3.40;;;;;;;;;;5052126;28;20087;-67
2022/08/16 12:08:14;;;;;;;10.40;3.85;;;;;;;;;;5052577;28;20033;-72
2022/08/16 12:10:40;;;;;;;7.43;3.50;;;;;;;;;;5054306;28;20017;-69
2022/08/16 12:13:07;;;;;;;9.55;3.30;;;;;;;;;;5053726;28;20032;-67
2022/08/16 12:15:33;;;;;;;10.27;3.40;;;;;;;;;;5053043;28;20021;-69
2022/08/16 12:17:59;;;;;;;9.57;3.67;;;;;;;;;;5055672;28;20032;-76
2022/08/16 12:20:26;;;;;;;9.57;3.67;;;;;;;;;;5051852;28;20068;-68
2022/08/16 12:22:53;;;;;;;7.97;3.90;;;;;;;;;;5056361;28;20064;-77
2022/08/16 12:25:20;;;;;;;7.53;3.58;;;;;;;;;;5051227;28;20498;-67
2022/08/16 12:27:47;;;;;;;8.00;3.40;;;;;;;;;;5048696;28;20029;-67
2022/08/16 12:30:15;;;;;;;6.28;3.38;;;;;;;;;;5052955;28;20074;-67
2022/08/16 12:32:41;;;;;;;5.80;3.53;;;;;;;;;;5056742;28;20040;-69
2022/08/16 12:35:09;;;;;;;5.63;3.45;;;;;;;;;;5050976;28;20021;-70
2022/08/16 12:37:35;;;;;;;8.95;3.55;;;;;;;;;;5033656;28;20398;-81
2022/08/16 12:40:01;;;;;;;5.57;3.45;;;;;;;;;;5053012;28;20082;-69
2022/08/16 12:42:28;;;;;;;7.90;3.33;;;;;;;;;;5052263;28;20410;-68
2022/08/16 12:44:54;;;;;;;6.47;3.33;;;;;;;;;;5050473;28;20041;-75
2022/08/16 12:50:06;;;;;;;6.40;3.50;;;;;;;;;;5044720;28;20051;-69
2022/08/16 12:52:32;;;;;;;8.68;3.85;;;;;;;;;;5058274;28;20065;-68
2022/08/16 12:54:58;;;;;;;6.00;3.45;;;;;;;;;;5050676;28;20390;-73
2022/08/16 12:57:24;;;;;;;5.65;3.60;;;;;;;;;;5051793;28;20036;-70
2022/08/16 12:59:53;;;;;;;5.50;3.30;;;;;;;;;;5055484;28;20522;-71
2022/08/16 13:02:20;;;;;;;9.85;3.40;;;;;;;;;;5055885;28;20090;-68
2022/08/16 13:04:46;;;;;;;5.55;3.58;;;;;;;;;;5050072;28;20021;-78
2022/08/16 13:07:12;;;;;;;15.07;7.55;;;;;;;;;;5051778;28;20025;-68
2022/08/16 13:09:50;;;;;;;11.95;3.78;;;;;;;;;;5047550;28;20025;-77
2022/08/16 13:12:22;;;;;;;6.20;3.33;;;;;;;;;;5051456;28;20017;-69
2022/08/16 13:14:49;;;;;;;8.75;3.90;;;;;;;;;;5052423;28;20020;-68
2022/08/16 13:17:18;;;;;;;9.93;3.92;;;;;;;;;;5051100;28;20086;-71
2022/08/16 13:19:44;;;;;;;8.30;4.22;;;;;;;;;;5051435;28;20029;-79
2022/08/16 13:22:11;;;;;;;4.90;3.78;;;;;;;;;;5047044;28;20029;-70
2022/08/16 13:24:37;;;;;;;4.50;2.90;;;;;;;;;;5050741;28;20024;-69
2022/08/16 13:27:03;;;;;;;5.85;3.10;;;;;;;;;;5051831;28;20048;-70
2022/08/16 13:29:29;;;;;;;5.95;3.40;;;;;;;;;;5052698;28;20020;-68
2022/08/16 13:31:55;;;;;;;5.43;3.42;;;;;;;;;;5031429;28;20033;-76
2022/08/16 13:34:22;;;;;;;8.20;3.55;;;;;;;;;;5038886;28;20029;-68
2022/08/16 13:36:48;;;;;;;14.60;4.72;;;;;;;;;;5051246;28;20032;-72
2022/08/16 13:39:14;;;;;;;15.15;3.92;;;;;;;;;;5057375;28;20024;-69
2022/08/16 13:41:40;;;;;;;7.40;3.83;;;;;;;;;;5050698;28;20028;-68
2022/08/16 13:44:06;;;;;;;6.05;3.17;;;;;;;;;;5055335;28;20039;-68
2022/08/16 13:46:32;;;;;;;12.73;4.18;;;;;;;;;;5045865;28;20025;-76
2022/08/16 13:48:59;;;;;;;6.35;3.13;;;;;;;;;;5048922;28;20036;-71
2022/08/16 13:51:26;;;;;;;12.60;3.53;;;;;;;;;;5056987;28;20029;-76
2022/08/16 13:53:54;;;;;;;9.48;3.72;;;;;;;;;;5051016;28;20507;-68
2022/08/16 13:56:20;;;;;;;8.75;3.53;;;;;;;;;;5050962;28;20037;-68
2022/08/16 13:58:47;;;;;;;6.47;3.25;;;;;;;;;;5051621;28;20037;-69
2022/08/16 14:01:13;;;;;;;5.68;3.25;;;;;;;;;;5051446;28;20104;-69
2022/08/16 14:03:39;;;;;;;7.68;3.40;;;;;;;;;;5052610;28;20108;-80
2022/08/16 14:06:06;;;;;;;5.65;3.70;;;;;;;;;;5051675;28;20021;-68
2022/08/16 14:08:32;;;;;;;7.70;3.47;;;;;;;;;;5050808;28;20049;-81
2022/08/16 14:10:58;;;;;;;5.90;3.20;;;;;;;;;;5051743;28;20112;-68
2022/08/16 14:13:24;;;;;;;9.85;3.13;;;;;;;;;;5051307;28;20031;-76
2022/08/16 14:15:50;;;;;;;6.03;3.22;;;;;;;;;;5051772;28;20025;-75
2022/08/16 14:18:17;;;;;;;8.30;3.30;;;;;;;;;;5050368;28;20036;-74
2022/08/16 14:20:43;;;;;;;8.45;3.47;;;;;;;;;;5051653;28;20029;-68
2022/08/16 14:23:09;;;;;;;5.93;3.28;;;;;;;;;;5056070;28;20025;-68
2022/08/16 14:25:36;;;;;;;7.78;3.45;;;;;;;;;;5056007;28;20044;-67
2022/08/16 14:28:02;;;;;;;8.00;3.42;;;;;;;;;;5053363;28;20044;-67
2022/08/16 14:30:29;;;;;;;5.43;3.28;;;;;;;;;;5054936;28;20781;-67
2022/08/16 14:32:55;;;;;;;9.27;3.15;;;;;;;;;;5055282;28;20098;-68
2022/08/16 14:35:23;;;;;;;6.18;3.38;;;;;;;;;;5055010;28;20463;-68
2022/08/16 14:37:49;;;;;;;5.22;3.20;;;;;;;;;;5055170;28;20036;-72